sensor_id;sensor_type;location;lat;lon;timestamp;P1;durP1;ratioP1;P2;durP2;ratioP2
59052;SDS011;44843;44.728;10.396;2023-06-19T00:00:42;9.20;;;4.05;;
59052;SDS011;44843;44.728;10.396;2023-06-19T00:03:07;5.05;;;3.67;;
59052;SDS011;44843;44.728;10.396;2023-06-19T00:05:32;4.97;;;3.80;;
59052;SDS011;44843;44.728;10.396;2023-06-19T00:07:58;3.92;;;3.50;;
59052;SDS011;44843;44.728;10.396;2023-06-19T00:10:24;7.25;;;3.70;;
59052;SDS011;44843;44.728;10.396;2023-06-19T00:12:49;4.97;;;3.33;;
59052;SDS011;44843;44.728;10.396;2023-06-19T00:15:14;6.50;;;3.58;;
59052;SDS011;44843;44.728;10.396;2023-06-19T00:17:40;3.75;;;3.22;;
59052;SDS011;44843;44.728;10.396;2023-06-19T00:20:06;8.02;;;4.15;;
59052;SDS011;44843;44.728;10.396;2023-06-19T00:22:32;4.88;;;3.58;;
59052;SDS011;44843;44.728;10.396;2023-06-19T00:24:58;4.68;;;3.83;;
59052;SDS011;44843;44.728;10.396;2023-06-19T00:27:23;6.50;;;4.00;;
59052;SDS011;44843;44.728;10.396;2023-06-19T00:29:50;5.10;;;3.55;;
59052;SDS011;44843;44.728;10.396;2023-06-19T00:32:16;4.07;;;3.67;;
59052;SDS011;44843;44.728;10.396;2023-06-19T00:34:41;5.07;;;4.05;;
59052;SDS011;44843;44.728;10.396;2023-06-19T00:37:08;4.90;;;3.90;;
59052;SDS011;44843;44.728;10.396;2023-06-19T00:39:34;5.53;;;3.83;;
59052;SDS011;44843;44.728;10.396;2023-06-19T00:42:00;5.40;;;3.72;;
59052;SDS011;44843;44.728;10.396;2023-06-19T00:44:26;4.43;;;3.97;;
59052;SDS011;44843;44.728;10.396;2023-06-19T00:46:55;5.32;;;3.90;;
59052;SDS011;44843;44.728;10.396;2023-06-19T00:49:22;6.18;;;3.97;;
59052;SDS011;44843;44.728;10.396;2023-06-19T00:51:51;5.80;;;3.50;;
59052;SDS011;44843;44.728;10.396;2023-06-19T00:54:16;4.57;;;3.92;;
59052;SDS011;44843;44.728;10.396;2023-06-19T00:56:42;5.18;;;3.70;;
59052;SDS011;44843;44.728;10.396;2023-06-19T00:59:16;6.20;;;5.13;;
59052;SDS011;44843;44.728;10.396;2023-06-19T01:01:43;3.90;;;3.47;;
59052;SDS011;44843;44.728;10.396;2023-06-19T01:04:09;4.00;;;3.60;;
59052;SDS011;44843;44.728;10.396;2023-06-19T01:06:56;4.78;;;3.95;;
59052;SDS011;44843;44.728;10.396;2023-06-19T01:09:31;5.32;;;3.78;;
59052;SDS011;44843;44.728;10.396;2023-06-19T01:12:02;7.05;;;4.22;;
59052;SDS011;44843;44.728;10.396;2023-06-19T01:14:41;5.35;;;3.38;;
59052;SDS011;44843;44.728;10.396;2023-06-19T01:17:13;4.45;;;3.67;;
59052;SDS011;44843;44.728;10.396;2023-06-19T01:19:39;8.45;;;4.32;;
59052;SDS011;44843;44.728;10.396;2023-06-19T01:22:04;5.03;;;3.72;;
59052;SDS011;44843;44.728;10.396;2023-06-19T01:24:30;5.32;;;3.90;;
59052;SDS011;44843;44.728;10.396;2023-06-19T01:26:56;3.95;;;3.50;;
59052;SDS011;44843;44.728;10.396;2023-06-19T01:29:21;6.93;;;3.72;;
59052;SDS011;44843;44.728;10.396;2023-06-19T01:34:27;4.28;;;3.55;;
59052;SDS011;44843;44.728;10.396;2023-06-19T01:39:22;4.32;;;3.40;;
59052;SDS011;44843;44.728;10.396;2023-06-19T01:41:48;5.40;;;3.40;;
59052;SDS011;44843;44.728;10.396;2023-06-19T01:44:15;5.20;;;3.90;;
59052;SDS011;44843;44.728;10.396;2023-06-19T01:46:40;6.72;;;3.78;;
59052;SDS011;44843;44.728;10.396;2023-06-19T01:49:07;4.25;;;3.78;;
59052;SDS011;44843;44.728;10.396;2023-06-19T01:51:34;5.55;;;3.50;;
59052;SDS011;44843;44.728;10.396;2023-06-19T01:53:59;5.60;;;3.60;;
59052;SDS011;44843;44.728;10.396;2023-06-19T01:56:25;7.75;;;3.40;;
59052;SDS011;44843;44.728;10.396;2023-06-19T01:58:51;4.78;;;3.42;;
59052;SDS011;44843;44.728;10.396;2023-06-19T02:01:16;6.43;;;3.92;;
59052;SDS011;44843;44.728;10.396;2023-06-19T02:03:41;4.53;;;3.70;;
59052;SDS011;44843;44.728;10.396;2023-06-19T02:06:07;4.47;;;3.55;;
59052;SDS011;44843;44.728;10.396;2023-06-19T02:08:32;4.55;;;3.30;;
59052;SDS011;44843;44.728;10.396;2023-06-19T02:10:57;4.47;;;3.50;;
59052;SDS011;44843;44.728;10.396;2023-06-19T02:13:23;5.07;;;3.40;;
59052;SDS011;44843;44.728;10.396;2023-06-19T02:15:48;6.20;;;3.42;;
59052;SDS011;44843;44.728;10.396;2023-06-19T02:18:14;4.07;;;3.65;;
59052;SDS011;44843;44.728;10.396;2023-06-19T02:20:39;5.25;;;3.58;;
59052;SDS011;44843;44.728;10.396;2023-06-19T02:23:05;5.70;;;3.55;;
59052;SDS011;44843;44.728;10.396;2023-06-19T02:25:30;4.22;;;3.83;;
59052;SDS011;44843;44.728;10.396;2023-06-19T02:27:55;5.07;;;3.83;;
59052;SDS011;44843;44.728;10.396;2023-06-19T02:30:21;5.75;;;3.80;;
59052;SDS011;44843;44.728;10.396;2023-06-19T02:32:47;6.32;;;3.80;;
59052;SDS011;44843;44.728;10.396;2023-06-19T02:35:12;5.00;;;3.80;;
59052;SDS011;44843;44.728;10.396;2023-06-19T02:37:40;5.80;;;3.78;;
59052;SDS011;44843;44.728;10.396;2023-06-19T02:40:05;6.10;;;3.90;;
59052;SDS011;44843;44.728;10.396;2023-06-19T02:42:31;5.57;;;4.05;;
59052;SDS011;44843;44.728;10.396;2023-06-19T02:44:57;7.78;;;4.03;;
59052;SDS011;44843;44.728;10.396;2023-06-19T02:47:28;6.32;;;4.13;;
59052;SDS011;44843;44.728;10.396;2023-06-19T02:50:00;6.03;;;3.95;;
59052;SDS011;44843;44.728;10.396;2023-06-19T02:52:26;5.55;;;3.75;;
59052;SDS011;44843;44.728;10.396;2023-06-19T02:54:52;6.35;;;3.83;;
59052;SDS011;44843;44.728;10.396;2023-06-19T02:57:18;5.45;;;3.75;;
59052;SDS011;44843;44.728;10.396;2023-06-19T02:59:43;5.05;;;4.55;;
59052;SDS011;44843;44.728;10.396;2023-06-19T03:02:10;5.60;;;4.50;;
59052;SDS011;44843;44.728;10.396;2023-06-19T03:04:36;6.38;;;4.40;;
59052;SDS011;44843;44.728;10.396;2023-06-19T03:07:01;6.40;;;4.32;;
59052;SDS011;44843;44.728;10.396;2023-06-19T03:09:28;5.50;;;4.53;;
59052;SDS011;44843;44.728;10.396;2023-06-19T03:11:54;6.88;;;4.25;;
59052;SDS011;44843;44.728;10.396;2023-06-19T03:14:19;5.03;;;4.25;;
59052;SDS011;44843;44.728;10.396;2023-06-19T03:16:45;7.00;;;4.47;;
59052;SDS011;44843;44.728;10.396;2023-06-19T03:19:10;5.00;;;3.90;;
59052;SDS011;44843;44.728;10.396;2023-06-19T03:21:36;5.90;;;3.92;;
59052;SDS011;44843;44.728;10.396;2023-06-19T03:24:01;5.18;;;4.18;;
59052;SDS011;44843;44.728;10.396;2023-06-19T03:26:27;5.25;;;4.25;;
59052;SDS011;44843;44.728;10.396;2023-06-19T03:28:52;6.18;;;3.92;;
59052;SDS011;44843;44.728;10.396;2023-06-19T03:31:18;5.38;;;4.10;;
59052;SDS011;44843;44.728;10.396;2023-06-19T03:33:43;5.20;;;4.38;;
59052;SDS011;44843;44.728;10.396;2023-06-19T03:36:09;4.90;;;3.92;;
59052;SDS011;44843;44.728;10.396;2023-06-19T03:38:34;8.55;;;4.40;;
59052;SDS011;44843;44.728;10.396;2023-06-19T03:41:00;4.90;;;4.28;;
59052;SDS011;44843;44.728;10.396;2023-06-19T03:43:25;6.07;;;4.47;;
59052;SDS011;44843;44.728;10.396;2023-06-19T03:45:50;5.53;;;4.22;;
59052;SDS011;44843;44.728;10.396;2023-06-19T03:48:17;6.38;;;4.20;;
59052;SDS011;44843;44.728;10.396;2023-06-19T03:50:42;5.43;;;4.20;;
59052;SDS011;44843;44.728;10.396;2023-06-19T03:53:08;8.90;;;4.38;;
59052;SDS011;44843;44.728;10.396;2023-06-19T03:55:33;7.50;;;4.53;;
59052;SDS011;44843;44.728;10.396;2023-06-19T03:57:59;8.82;;;4.88;;
59052;SDS011;44843;44.728;10.396;2023-06-19T04:00:24;8.95;;;4.72;;
59052;SDS011;44843;44.728;10.396;2023-06-19T04:02:50;4.43;;;3.75;;
59052;SDS011;44843;44.728;10.396;2023-06-19T04:05:15;4.88;;;4.22;;
59052;SDS011;44843;44.728;10.396;2023-06-19T04:07:41;4.75;;;3.95;;
59052;SDS011;44843;44.728;10.396;2023-06-19T04:10:07;5.60;;;4.17;;
59052;SDS011;44843;44.728;10.396;2023-06-19T04:12:32;5.53;;;4.25;;
59052;SDS011;44843;44.728;10.396;2023-06-19T04:14:58;6.35;;;4.28;;
59052;SDS011;44843;44.728;10.396;2023-06-19T04:17:23;6.38;;;3.80;;
59052;SDS011;44843;44.728;10.396;2023-06-19T04:19:49;4.90;;;4.13;;
59052;SDS011;44843;44.728;10.396;2023-06-19T04:22:14;6.10;;;4.13;;
59052;SDS011;44843;44.728;10.396;2023-06-19T04:24:40;6.90;;;4.00;;
59052;SDS011;44843;44.728;10.396;2023-06-19T04:27:05;6.82;;;4.28;;
59052;SDS011;44843;44.728;10.396;2023-06-19T04:29:33;8.68;;;4.55;;
59052;SDS011;44843;44.728;10.396;2023-06-19T04:31:59;6.60;;;4.15;;
59052;SDS011;44843;44.728;10.396;2023-06-19T04:34:24;6.43;;;4.25;;
59052;SDS011;44843;44.728;10.396;2023-06-19T04:36:50;6.85;;;3.88;;
59052;SDS011;44843;44.728;10.396;2023-06-19T04:39:16;4.22;;;3.55;;
59052;SDS011;44843;44.728;10.396;2023-06-19T04:41:44;6.95;;;4.05;;
59052;SDS011;44843;44.728;10.396;2023-06-19T04:44:10;4.45;;;3.70;;
59052;SDS011;44843;44.728;10.396;2023-06-19T04:46:38;5.93;;;4.00;;
59052;SDS011;44843;44.728;10.396;2023-06-19T04:49:05;5.13;;;4.20;;
59052;SDS011;44843;44.728;10.396;2023-06-19T04:51:31;4.28;;;3.45;;
59052;SDS011;44843;44.728;10.396;2023-06-19T04:53:57;8.15;;;4.47;;
59052;SDS011;44843;44.728;10.396;2023-06-19T04:56:23;7.10;;;4.47;;
59052;SDS011;44843;44.728;10.396;2023-06-19T04:58:49;6.32;;;4.20;;
59052;SDS011;44843;44.728;10.396;2023-06-19T05:01:16;8.20;;;4.38;;
59052;SDS011;44843;44.728;10.396;2023-06-19T05:03:43;4.90;;;4.10;;
59052;SDS011;44843;44.728;10.396;2023-06-19T05:06:11;8.30;;;5.38;;
59052;SDS011;44843;44.728;10.396;2023-06-19T05:08:37;6.22;;;4.35;;
59052;SDS011;44843;44.728;10.396;2023-06-19T05:11:02;6.90;;;4.32;;
59052;SDS011;44843;44.728;10.396;2023-06-19T05:13:28;5.50;;;4.38;;
59052;SDS011;44843;44.728;10.396;2023-06-19T05:15:53;7.05;;;4.05;;
59052;SDS011;44843;44.728;10.396;2023-06-19T05:18:20;9.35;;;4.65;;
59052;SDS011;44843;44.728;10.396;2023-06-19T05:20:46;6.40;;;4.55;;
59052;SDS011;44843;44.728;10.396;2023-06-19T05:23:11;5.00;;;4.22;;
59052;SDS011;44843;44.728;10.396;2023-06-19T05:25:37;6.63;;;4.60;;
59052;SDS011;44843;44.728;10.396;2023-06-19T05:28:02;7.50;;;4.63;;
59052;SDS011;44843;44.728;10.396;2023-06-19T05:30:28;7.13;;;4.80;;
59052;SDS011;44843;44.728;10.396;2023-06-19T05:32:54;11.40;;;4.80;;
59052;SDS011;44843;44.728;10.396;2023-06-19T05:35:19;8.02;;;5.03;;
59052;SDS011;44843;44.728;10.396;2023-06-19T05:37:45;23.58;;;7.43;;
59052;SDS011;44843;44.728;10.396;2023-06-19T05:40:10;9.23;;;4.78;;
59052;SDS011;44843;44.728;10.396;2023-06-19T05:42:36;5.38;;;4.50;;
59052;SDS011;44843;44.728;10.396;2023-06-19T05:45:02;6.00;;;4.68;;
59052;SDS011;44843;44.728;10.396;2023-06-19T05:47:28;7.55;;;4.85;;
59052;SDS011;44843;44.728;10.396;2023-06-19T05:49:55;6.75;;;5.20;;
59052;SDS011;44843;44.728;10.396;2023-06-19T05:52:21;8.43;;;5.85;;
59052;SDS011;44843;44.728;10.396;2023-06-19T05:54:47;10.02;;;5.45;;
59052;SDS011;44843;44.728;10.396;2023-06-19T05:57:12;7.32;;;5.00;;
59052;SDS011;44843;44.728;10.396;2023-06-19T05:59:40;7.18;;;5.32;;
59052;SDS011;44843;44.728;10.396;2023-06-19T06:02:06;6.68;;;5.03;;
59052;SDS011;44843;44.728;10.396;2023-06-19T06:04:32;7.05;;;5.60;;
59052;SDS011;44843;44.728;10.396;2023-06-19T06:06:59;9.93;;;5.25;;
59052;SDS011;44843;44.728;10.396;2023-06-19T06:09:24;6.75;;;5.25;;
59052;SDS011;44843;44.728;10.396;2023-06-19T06:11:49;7.72;;;4.68;;
59052;SDS011;44843;44.728;10.396;2023-06-19T06:14:15;6.05;;;4.45;;
59052;SDS011;44843;44.728;10.396;2023-06-19T06:16:40;14.88;;;7.00;;
59052;SDS011;44843;44.728;10.396;2023-06-19T06:19:06;6.40;;;4.53;;
59052;SDS011;44843;44.728;10.396;2023-06-19T06:21:31;10.68;;;5.45;;
59052;SDS011;44843;44.728;10.396;2023-06-19T06:23:57;13.50;;;5.60;;
59052;SDS011;44843;44.728;10.396;2023-06-19T06:26:22;16.87;;;5.90;;
59052;SDS011;44843;44.728;10.396;2023-06-19T06:28:47;9.63;;;5.70;;
59052;SDS011;44843;44.728;10.396;2023-06-19T06:31:13;9.30;;;5.95;;
59052;SDS011;44843;44.728;10.396;2023-06-19T06:33:38;9.15;;;5.97;;
59052;SDS011;44843;44.728;10.396;2023-06-19T06:36:04;12.80;;;5.63;;
59052;SDS011;44843;44.728;10.396;2023-06-19T06:38:29;10.30;;;6.70;;
59052;SDS011;44843;44.728;10.396;2023-06-19T06:40:55;9.25;;;5.57;;
59052;SDS011;44843;44.728;10.396;2023-06-19T06:43:20;7.00;;;5.20;;
59052;SDS011;44843;44.728;10.396;2023-06-19T06:45:46;7.00;;;5.82;;
59052;SDS011;44843;44.728;10.396;2023-06-19T06:48:11;6.93;;;5.13;;
59052;SDS011;44843;44.728;10.396;2023-06-19T06:50:37;9.27;;;5.85;;
59052;SDS011;44843;44.728;10.396;2023-06-19T06:53:02;7.13;;;5.07;;
59052;SDS011;44843;44.728;10.396;2023-06-19T06:55:27;8.93;;;6.03;;
59052;SDS011;44843;44.728;10.396;2023-06-19T06:57:53;9.30;;;5.50;;
59052;SDS011;44843;44.728;10.396;2023-06-19T07:00:18;11.02;;;5.50;;
59052;SDS011;44843;44.728;10.396;2023-06-19T07:02:44;8.95;;;5.00;;
59052;SDS011;44843;44.728;10.396;2023-06-19T07:05:12;8.02;;;5.15;;
59052;SDS011;44843;44.728;10.396;2023-06-19T07:07:37;6.90;;;5.45;;
59052;SDS011;44843;44.728;10.396;2023-06-19T07:10:03;7.20;;;5.07;;
59052;SDS011;44843;44.728;10.396;2023-06-19T07:12:29;8.82;;;5.00;;
59052;SDS011;44843;44.728;10.396;2023-06-19T07:14:54;9.10;;;4.55;;
59052;SDS011;44843;44.728;10.396;2023-06-19T07:17:20;6.63;;;4.70;;
59052;SDS011;44843;44.728;10.396;2023-06-19T07:19:45;5.00;;;4.50;;
59052;SDS011;44843;44.728;10.396;2023-06-19T07:22:11;5.88;;;4.80;;
59052;SDS011;44843;44.728;10.396;2023-06-19T07:24:36;8.88;;;4.65;;
59052;SDS011;44843;44.728;10.396;2023-06-19T07:27:02;6.37;;;4.00;;
59052;SDS011;44843;44.728;10.396;2023-06-19T07:29:27;8.80;;;4.32;;
59052;SDS011;44843;44.728;10.396;2023-06-19T07:31:52;7.15;;;4.50;;
59052;SDS011;44843;44.728;10.396;2023-06-19T07:34:18;5.60;;;4.22;;
59052;SDS011;44843;44.728;10.396;2023-06-19T07:36:43;6.53;;;4.80;;
59052;SDS011;44843;44.728;10.396;2023-06-19T07:39:09;6.68;;;3.55;;
59052;SDS011;44843;44.728;10.396;2023-06-19T07:41:35;6.97;;;4.25;;
59052;SDS011;44843;44.728;10.396;2023-06-19T07:44:00;6.22;;;4.25;;
59052;SDS011;44843;44.728;10.396;2023-06-19T07:46:26;4.55;;;4.07;;
59052;SDS011;44843;44.728;10.396;2023-06-19T07:48:51;7.70;;;4.60;;
59052;SDS011;44843;44.728;10.396;2023-06-19T07:51:16;5.40;;;3.78;;
59052;SDS011;44843;44.728;10.396;2023-06-19T07:53:42;7.22;;;4.28;;
59052;SDS011;44843;44.728;10.396;2023-06-19T07:56:08;7.97;;;4.25;;
59052;SDS011;44843;44.728;10.396;2023-06-19T07:58:34;8.27;;;4.13;;
59052;SDS011;44843;44.728;10.396;2023-06-19T08:01:00;8.00;;;4.35;;
59052;SDS011;44843;44.728;10.396;2023-06-19T08:03:26;7.13;;;4.20;;
59052;SDS011;44843;44.728;10.396;2023-06-19T08:05:52;7.68;;;4.78;;
59052;SDS011;44843;44.728;10.396;2023-06-19T08:08:17;7.53;;;3.92;;
59052;SDS011;44843;44.728;10.396;2023-06-19T08:10:43;7.35;;;4.40;;
59052;SDS011;44843;44.728;10.396;2023-06-19T08:13:08;6.38;;;4.10;;
59052;SDS011;44843;44.728;10.396;2023-06-19T08:15:36;7.13;;;3.90;;
59052;SDS011;44843;44.728;10.396;2023-06-19T08:18:01;6.32;;;4.68;;
59052;SDS011;44843;44.728;10.396;2023-06-19T08:20:27;6.53;;;4.13;;
59052;SDS011;44843;44.728;10.396;2023-06-19T08:22:53;6.57;;;4.07;;
59052;SDS011;44843;44.728;10.396;2023-06-19T08:25:18;4.72;;;4.15;;
59052;SDS011;44843;44.728;10.396;2023-06-19T08:27:44;7.80;;;4.57;;
59052;SDS011;44843;44.728;10.396;2023-06-19T08:30:10;7.93;;;4.40;;
59052;SDS011;44843;44.728;10.396;2023-06-19T08:32:36;7.15;;;4.70;;
59052;SDS011;44843;44.728;10.396;2023-06-19T08:35:01;6.90;;;4.53;;
59052;SDS011;44843;44.728;10.396;2023-06-19T08:37:27;5.93;;;4.55;;
59052;SDS011;44843;44.728;10.396;2023-06-19T08:39:53;6.40;;;4.40;;
59052;SDS011;44843;44.728;10.396;2023-06-19T08:42:20;6.57;;;3.63;;
59052;SDS011;44843;44.728;10.396;2023-06-19T08:44:45;7.50;;;4.65;;
59052;SDS011;44843;44.728;10.396;2023-06-19T08:47:11;6.68;;;4.38;;
59052;SDS011;44843;44.728;10.396;2023-06-19T08:49:36;5.60;;;4.32;;
59052;SDS011;44843;44.728;10.396;2023-06-19T08:52:02;5.30;;;4.15;;
59052;SDS011;44843;44.728;10.396;2023-06-19T08:54:29;5.95;;;4.20;;
59052;SDS011;44843;44.728;10.396;2023-06-19T08:56:54;5.73;;;4.67;;
59052;SDS011;44843;44.728;10.396;2023-06-19T08:59:20;6.35;;;4.32;;
59052;SDS011;44843;44.728;10.396;2023-06-19T09:01:47;5.40;;;3.78;;
59052;SDS011;44843;44.728;10.396;2023-06-19T09:04:17;7.85;;;4.72;;
59052;SDS011;44843;44.728;10.396;2023-06-19T09:09:27;5.45;;;4.47;;
59052;SDS011;44843;44.728;10.396;2023-06-19T09:12:03;9.60;;;4.15;;
59052;SDS011;44843;44.728;10.396;2023-06-19T09:14:33;7.53;;;4.80;;
59052;SDS011;44843;44.728;10.396;2023-06-19T09:17:02;7.97;;;4.22;;
59052;SDS011;44843;44.728;10.396;2023-06-19T09:19:29;5.78;;;3.88;;
59052;SDS011;44843;44.728;10.396;2023-06-19T09:22:04;9.68;;;4.65;;
59052;SDS011;44843;44.728;10.396;2023-06-19T09:24:40;16.77;;;4.78;;
59052;SDS011;44843;44.728;10.396;2023-06-19T09:27:07;6.20;;;4.32;;
59052;SDS011;44843;44.728;10.396;2023-06-19T09:29:39;5.72;;;4.85;;
59052;SDS011;44843;44.728;10.396;2023-06-19T09:34:43;5.70;;;3.97;;
59052;SDS011;44843;44.728;10.396;2023-06-19T09:37:09;5.65;;;4.15;;
59052;SDS011;44843;44.728;10.396;2023-06-19T09:39:38;4.95;;;4.18;;
59052;SDS011;44843;44.728;10.396;2023-06-19T09:42:05;5.53;;;4.45;;
59052;SDS011;44843;44.728;10.396;2023-06-19T09:44:34;9.70;;;4.18;;
59052;SDS011;44843;44.728;10.396;2023-06-19T09:47:07;7.68;;;4.53;;
59052;SDS011;44843;44.728;10.396;2023-06-19T09:49:42;5.40;;;4.50;;
59052;SDS011;44843;44.728;10.396;2023-06-19T09:52:12;5.60;;;4.55;;
59052;SDS011;44843;44.728;10.396;2023-06-19T09:54:38;6.57;;;4.55;;
59052;SDS011;44843;44.728;10.396;2023-06-19T09:57:06;6.38;;;4.07;;
59052;SDS011;44843;44.728;10.396;2023-06-19T09:59:33;5.55;;;4.38;;
59052;SDS011;44843;44.728;10.396;2023-06-19T10:01:59;12.05;;;4.50;;
59052;SDS011;44843;44.728;10.396;2023-06-19T10:04:24;6.28;;;4.25;;
59052;SDS011;44843;44.728;10.396;2023-06-19T10:06:50;7.15;;;4.38;;
59052;SDS011;44843;44.728;10.396;2023-06-19T10:09:16;5.13;;;4.40;;
59052;SDS011;44843;44.728;10.396;2023-06-19T10:11:52;7.75;;;4.75;;
59052;SDS011;44843;44.728;10.396;2023-06-19T10:14:21;4.88;;;4.30;;
59052;SDS011;44843;44.728;10.396;2023-06-19T10:16:47;6.40;;;4.00;;
59052;SDS011;44843;44.728;10.396;2023-06-19T10:19:17;7.38;;;4.18;;
59052;SDS011;44843;44.728;10.396;2023-06-19T10:21:49;4.65;;;4.10;;
59052;SDS011;44843;44.728;10.396;2023-06-19T10:24:17;8.57;;;5.47;;
59052;SDS011;44843;44.728;10.396;2023-06-19T10:26:55;4.80;;;4.28;;
59052;SDS011;44843;44.728;10.396;2023-06-19T10:29:23;6.25;;;4.97;;
59052;SDS011;44843;44.728;10.396;2023-06-19T10:31:48;5.45;;;4.18;;
59052;SDS011;44843;44.728;10.396;2023-06-19T10:34:14;6.18;;;4.35;;
59052;SDS011;44843;44.728;10.396;2023-06-19T10:36:39;6.95;;;4.68;;
59052;SDS011;44843;44.728;10.396;2023-06-19T10:39:05;4.35;;;3.95;;
59052;SDS011;44843;44.728;10.396;2023-06-19T10:41:32;4.57;;;4.10;;
59052;SDS011;44843;44.728;10.396;2023-06-19T10:46:34;6.75;;;4.13;;
59052;SDS011;44843;44.728;10.396;2023-06-19T10:49:01;10.05;;;4.18;;
59052;SDS011;44843;44.728;10.396;2023-06-19T10:51:38;7.55;;;4.18;;
59052;SDS011;44843;44.728;10.396;2023-06-19T10:54:05;5.28;;;4.57;;
59052;SDS011;44843;44.728;10.396;2023-06-19T10:56:31;7.82;;;5.03;;
59052;SDS011;44843;44.728;10.396;2023-06-19T10:59:01;7.45;;;4.93;;
59052;SDS011;44843;44.728;10.396;2023-06-19T11:01:34;5.28;;;4.63;;
59052;SDS011;44843;44.728;10.396;2023-06-19T11:04:02;7.93;;;4.78;;
59052;SDS011;44843;44.728;10.396;2023-06-19T11:06:31;6.82;;;4.53;;
59052;SDS011;44843;44.728;10.396;2023-06-19T11:08:58;6.47;;;4.50;;
59052;SDS011;44843;44.728;10.396;2023-06-19T11:11:34;6.65;;;5.63;;
59052;SDS011;44843;44.728;10.396;2023-06-19T11:14:00;6.07;;;4.28;;
59052;SDS011;44843;44.728;10.396;2023-06-19T11:16:25;4.95;;;4.45;;
59052;SDS011;44843;44.728;10.396;2023-06-19T11:18:55;5.82;;;4.55;;
59052;SDS011;44843;44.728;10.396;2023-06-19T11:21:30;5.20;;;4.50;;
59052;SDS011;44843;44.728;10.396;2023-06-19T11:24:03;5.22;;;4.72;;
59052;SDS011;44843;44.728;10.396;2023-06-19T11:26:33;5.55;;;4.35;;
59052;SDS011;44843;44.728;10.396;2023-06-19T11:29:00;4.07;;;3.67;;
59052;SDS011;44843;44.728;10.396;2023-06-19T11:31:26;5.57;;;4.68;;
59052;SDS011;44843;44.728;10.396;2023-06-19T11:33:55;5.00;;;4.50;;
59052;SDS011;44843;44.728;10.396;2023-06-19T11:36:24;5.60;;;4.55;;
59052;SDS011;44843;44.728;10.396;2023-06-19T11:38:51;5.97;;;4.53;;
59052;SDS011;44843;44.728;10.396;2023-06-19T11:41:27;5.72;;;4.68;;
59052;SDS011;44843;44.728;10.396;2023-06-19T11:44:26;5.32;;;4.57;;
59052;SDS011;44843;44.728;10.396;2023-06-19T11:46:45;9.18;;;4.82;;
59052;SDS011;44843;44.728;10.396;2023-06-19T11:51:38;5.70;;;4.95;;
59052;SDS011;44843;44.728;10.396;2023-06-19T11:54:05;9.82;;;4.32;;
59052;SDS011;44843;44.728;10.396;2023-06-19T11:56:32;7.68;;;4.85;;
59052;SDS011;44843;44.728;10.396;2023-06-19T11:58:57;7.95;;;4.60;;
59052;SDS011;44843;44.728;10.396;2023-06-19T12:01:23;7.90;;;4.43;;
59052;SDS011;44843;44.728;10.396;2023-06-19T12:03:48;8.60;;;5.20;;
59052;SDS011;44843;44.728;10.396;2023-06-19T12:06:16;6.10;;;5.00;;
59052;SDS011;44843;44.728;10.396;2023-06-19T12:08:42;8.98;;;4.60;;
59052;SDS011;44843;44.728;10.396;2023-06-19T12:11:08;4.55;;;4.15;;
59052;SDS011;44843;44.728;10.396;2023-06-19T12:13:35;5.25;;;4.30;;
59052;SDS011;44843;44.728;10.396;2023-06-19T12:16:00;7.20;;;4.65;;
59052;SDS011;44843;44.728;10.396;2023-06-19T12:18:26;5.13;;;4.55;;
59052;SDS011;44843;44.728;10.396;2023-06-19T12:20:52;5.00;;;4.50;;
59052;SDS011;44843;44.728;10.396;2023-06-19T12:23:17;7.45;;;4.60;;
59052;SDS011;44843;44.728;10.396;2023-06-19T12:25:43;5.07;;;4.57;;
59052;SDS011;44843;44.728;10.396;2023-06-19T12:28:08;6.25;;;4.65;;
59052;SDS011;44843;44.728;10.396;2023-06-19T12:30:34;5.50;;;4.30;;
59052;SDS011;44843;44.728;10.396;2023-06-19T12:33:00;6.35;;;4.57;;
59052;SDS011;44843;44.728;10.396;2023-06-19T12:35:28;11.65;;;5.13;;
59052;SDS011;44843;44.728;10.396;2023-06-19T12:37:54;5.18;;;4.50;;
59052;SDS011;44843;44.728;10.396;2023-06-19T12:40:20;8.13;;;5.13;;
59052;SDS011;44843;44.728;10.396;2023-06-19T12:42:45;5.45;;;4.95;;
59052;SDS011;44843;44.728;10.396;2023-06-19T12:45:11;5.60;;;4.30;;
59052;SDS011;44843;44.728;10.396;2023-06-19T12:47:37;5.55;;;4.90;;
59052;SDS011;44843;44.728;10.396;2023-06-19T12:50:03;6.40;;;4.95;;
59052;SDS011;44843;44.728;10.396;2023-06-19T12:52:29;6.07;;;4.97;;
59052;SDS011;44843;44.728;10.396;2023-06-19T12:54:55;6.00;;;4.72;;
59052;SDS011;44843;44.728;10.396;2023-06-19T12:57:21;7.22;;;4.57;;
59052;SDS011;44843;44.728;10.396;2023-06-19T12:59:46;7.03;;;4.25;;
59052;SDS011;44843;44.728;10.396;2023-06-19T13:02:12;7.63;;;4.78;;
59052;SDS011;44843;44.728;10.396;2023-06-19T13:04:37;7.88;;;4.70;;
59052;SDS011;44843;44.728;10.396;2023-06-19T13:07:03;6.80;;;4.40;;
59052;SDS011;44843;44.728;10.396;2023-06-19T13:09:29;5.18;;;4.45;;
59052;SDS011;44843;44.728;10.396;2023-06-19T13:11:55;5.60;;;4.90;;
59052;SDS011;44843;44.728;10.396;2023-06-19T13:14:20;4.85;;;4.30;;
59052;SDS011;44843;44.728;10.396;2023-06-19T13:16:46;6.47;;;5.40;;
59052;SDS011;44843;44.728;10.396;2023-06-19T13:19:11;5.55;;;4.40;;
59052;SDS011;44843;44.728;10.396;2023-06-19T13:21:37;7.43;;;4.40;;
59052;SDS011;44843;44.728;10.396;2023-06-19T13:24:02;5.28;;;4.55;;
59052;SDS011;44843;44.728;10.396;2023-06-19T13:26:28;6.38;;;5.25;;
59052;SDS011;44843;44.728;10.396;2023-06-19T13:28:53;5.55;;;4.85;;
59052;SDS011;44843;44.728;10.396;2023-06-19T13:31:19;6.82;;;4.68;;
59052;SDS011;44843;44.728;10.396;2023-06-19T13:33:44;7.95;;;5.20;;
59052;SDS011;44843;44.728;10.396;2023-06-19T13:36:09;9.10;;;4.93;;
59052;SDS011;44843;44.728;10.396;2023-06-19T13:38:35;7.47;;;4.85;;
59052;SDS011;44843;44.728;10.396;2023-06-19T13:41:00;6.05;;;4.63;;
59052;SDS011;44843;44.728;10.396;2023-06-19T13:43:25;4.50;;;4.10;;
59052;SDS011;44843;44.728;10.396;2023-06-19T13:45:51;5.72;;;5.05;;
59052;SDS011;44843;44.728;10.396;2023-06-19T13:48:16;8.90;;;4.82;;
59052;SDS011;44843;44.728;10.396;2023-06-19T13:50:42;5.88;;;4.72;;
59052;SDS011;44843;44.728;10.396;2023-06-19T13:53:07;7.18;;;4.80;;
59052;SDS011;44843;44.728;10.396;2023-06-19T13:55:32;8.13;;;4.82;;
59052;SDS011;44843;44.728;10.396;2023-06-19T13:57:58;4.82;;;4.32;;
59052;SDS011;44843;44.728;10.396;2023-06-19T14:00:23;8.20;;;5.03;;
59052;SDS011;44843;44.728;10.396;2023-06-19T14:02:48;4.75;;;4.18;;
59052;SDS011;44843;44.728;10.396;2023-06-19T14:05:15;5.95;;;4.63;;
59052;SDS011;44843;44.728;10.396;2023-06-19T14:07:41;7.15;;;4.60;;
59052;SDS011;44843;44.728;10.396;2023-06-19T14:10:07;6.45;;;4.63;;
59052;SDS011;44843;44.728;10.396;2023-06-19T14:12:33;7.25;;;4.80;;
59052;SDS011;44843;44.728;10.396;2023-06-19T14:14:59;6.75;;;4.80;;
59052;SDS011;44843;44.728;10.396;2023-06-19T14:17:25;7.82;;;4.82;;
59052;SDS011;44843;44.728;10.396;2023-06-19T14:19:50;5.40;;;4.75;;
59052;SDS011;44843;44.728;10.396;2023-06-19T14:22:16;6.18;;;4.18;;
59052;SDS011;44843;44.728;10.396;2023-06-19T14:24:42;5.95;;;4.40;;
59052;SDS011;44843;44.728;10.396;2023-06-19T14:27:07;7.07;;;4.93;;
59052;SDS011;44843;44.728;10.396;2023-06-19T14:29:33;8.65;;;5.05;;
59052;SDS011;44843;44.728;10.396;2023-06-19T14:31:58;5.90;;;5.18;;
59052;SDS011;44843;44.728;10.396;2023-06-19T14:34:23;6.93;;;4.93;;
59052;SDS011;44843;44.728;10.396;2023-06-19T14:36:49;6.00;;;4.57;;
59052;SDS011;44843;44.728;10.396;2023-06-19T14:39:14;5.35;;;4.85;;
59052;SDS011;44843;44.728;10.396;2023-06-19T14:41:40;6.85;;;4.43;;
59052;SDS011;44843;44.728;10.396;2023-06-19T14:44:05;12.50;;;4.90;;